Time;durP1;ratioP1;P1;durP2;ratioP2;P2;SDS_P1;SDS_P2;PMS_P1;PMS_P2;Temp;Humidity;BMP_temperature;BMP_pressure;BME280_temperature;BME280_humidity;BME280_pressure;Samples;Min_cycle;Max_cycle;Signal;HPM_P1;HPM_P2
2022/09/02 00:01:31;;;;;;;;;3.00;3.00;;;;;;;;5104121;27;62901;-79
2022/09/02 00:04:01;;;;;;;;;5.33;3.67;;;;;;;;5104479;27;61672;-80
2022/09/02 00:06:28;;;;;;;;;3.33;3.33;;;;;;;;5102509;27;61814;-79
2022/09/02 00:08:54;;;;;;;;;6.00;6.00;;;;;;;;5102828;27;61954;-79
2022/09/02 00:11:21;;;;;;;;;4.67;4.67;;;;;;;;5102074;27;63570;-80
2022/09/02 00:13:47;;;;;;;;;6.00;5.00;;;;;;;;5104555;27;61675;-79
2022/09/02 00:16:13;;;;;;;;;7.33;5.00;;;;;;;;5104323;27;62101;-79
2022/09/02 00:18:39;;;;;;;;;4.33;4.33;;;;;;;;5102937;27;62004;-80
2022/09/02 00:21:04;;;;;;;;;5.00;5.00;;;;;;;;5103307;27;63273;-79
2022/09/02 00:23:30;;;;;;;;;5.00;5.00;;;;;;;;5103674;27;62318;-79
2022/09/02 00:25:55;;;;;;;;;8.33;5.33;;;;;;;;5104347;27;61884;-79
2022/09/02 00:28:20;;;;;;;;;6.00;4.67;;;;;;;;5104219;27;62134;-80
2022/09/02 00:30:46;;;;;;;;;5.67;5.67;;;;;;;;5102240;27;64830;-79
2022/09/02 00:33:12;;;;;;;;;5.00;3.33;;;;;;;;5102353;27;61851;-80
2022/09/02 00:35:37;;;;;;;;;5.00;3.67;;;;;;;;5103672;27;61951;-79
2022/09/02 00:38:04;;;;;;;;;9.33;6.00;;;;;;;;5104238;27;61909;-79
2022/09/02 00:40:29;;;;;;;;;6.00;4.67;;;;;;;;5101886;27;64074;-79
2022/09/02 00:42:55;;;;;;;;;6.33;3.67;;;;;;;;5103702;27;61712;-79
2022/09/02 00:45:20;;;;;;;;;5.33;4.67;;;;;;;;5103758;27;61738;-79
2022/09/02 00:47:46;;;;;;;;;6.00;4.00;;;;;;;;5104173;27;61718;-79
2022/09/02 00:50:14;;;;;;;;;4.33;4.33;;;;;;;;5102983;27;62456;-79
2022/09/02 00:52:42;;;;;;;;;5.33;5.00;;;;;;;;5103236;27;61765;-79
2022/09/02 00:55:11;;;;;;;;;5.33;4.33;;;;;;;;5102157;27;61931;-79
2022/09/02 00:57:38;;;;;;;;;6.00;5.67;;;;;;;;5103529;27;61809;-80
2022/09/02 01:00:07;;;;;;;;;3.67;3.33;;;;;;;;5102997;27;63067;-79
2022/09/02 01:02:32;;;;;;;;;5.67;4.67;;;;;;;;5102546;27;61820;-79
2022/09/02 01:04:58;;;;;;;;;4.67;4.67;;;;;;;;5101964;27;62114;-79
2022/09/02 01:07:29;;;;;;;;;6.33;6.33;;;;;;;;5102031;27;61933;-80
2022/09/02 01:09:55;;;;;;;;;6.33;5.00;;;;;;;;5102590;27;61881;-79
2022/09/02 01:12:21;;;;;;;;;5.67;5.00;;;;;;;;5101907;27;61623;-79
2022/09/02 01:14:46;;;;;;;;;5.00;5.00;;;;;;;;5103494;27;62062;-79
2022/09/02 01:17:12;;;;;;;;;8.33;5.33;;;;;;;;5101942;27;61842;-79
2022/09/02 01:19:39;;;;;;;;;6.67;5.33;;;;;;;;5100859;27;63584;-79
2022/09/02 01:22:13;;;;;;;;;5.33;5.33;;;;;;;;5101700;27;62134;-79
2022/09/02 01:24:39;;;;;;;;;6.00;5.00;;;;;;;;5101396;27;62023;-79
2022/09/02 01:27:04;;;;;;;;;6.00;3.00;;;;;;;;5103612;27;61880;-79
2022/09/02 01:29:29;;;;;;;;;4.00;4.00;;;;;;;;5100851;27;63555;-79
2022/09/02 01:31:55;;;;;;;;;5.00;5.00;;;;;;;;5101536;27;61899;-79
2022/09/02 01:34:20;;;;;;;;;6.33;4.33;;;;;;;;5103291;27;61890;-79
2022/09/02 01:36:45;;;;;;;;;5.67;5.67;;;;;;;;5101450;27;61736;-79
2022/09/02 01:39:11;;;;;;;;;8.67;7.00;;;;;;;;5102527;27;61929;-79
2022/09/02 01:41:37;;;;;;;;;7.33;5.67;;;;;;;;5101279;27;61977;-79
2022/09/02 01:44:03;;;;;;;;;6.67;6.00;;;;;;;;5102975;27;61881;-79
2022/09/02 01:46:28;;;;;;;;;7.00;5.33;;;;;;;;5101823;27;61805;-79
2022/09/02 01:48:53;;;;;;;;;6.00;6.00;;;;;;;;5100379;27;63494;-79
2022/09/02 01:51:19;;;;;;;;;5.67;5.67;;;;;;;;5102457;27;62004;-79
2022/09/02 01:53:45;;;;;;;;;6.00;4.67;;;;;;;;5102897;27;61738;-79
2022/09/02 01:56:11;;;;;;;;;6.33;6.00;;;;;;;;5103035;27;61657;-80
2022/09/02 01:58:36;;;;;;;;;3.00;3.00;;;;;;;;5101714;27;63130;-79
2022/09/02 02:01:02;;;;;;;;;5.33;4.67;;;;;;;;5101591;27;61961;-80
2022/09/02 02:03:28;;;;;;;;;4.00;4.00;;;;;;;;5102621;27;62474;-79
2022/09/02 02:05:54;;;;;;;;;7.67;6.00;;;;;;;;5102418;27;61873;-79
2022/09/02 02:08:19;;;;;;;;;7.67;6.33;;;;;;;;5100634;27;64595;-79
2022/09/02 02:10:46;;;;;;;;;7.00;6.33;;;;;;;;5102022;27;61782;-79
2022/09/02 02:13:11;;;;;;;;;10.33;7.00;;;;;;;;5102227;27;61796;-79
2022/09/02 02:15:37;;;;;;;;;7.00;7.00;;;;;;;;5105018;27;62028;-79
2022/09/02 02:18:03;;;;;;;;;7.67;3.00;;;;;;;;5103510;27;65137;-79
2022/09/02 02:20:28;;;;;;;;;7.00;6.00;;;;;;;;5105562;27;61801;-80
2022/09/02 02:22:53;;;;;;;;;7.75;7.75;;;;;;;;5104572;27;61900;-80
2022/09/02 02:25:19;;;;;;;;;7.67;6.33;;;;;;;;5105953;27;61822;-79
2022/09/02 02:27:44;;;;;;;;;6.00;5.00;;;;;;;;5104983;27;61705;-80
2022/09/02 02:30:11;;;;;;;;;4.67;4.67;;;;;;;;5104469;27;61752;-79
2022/09/02 02:32:36;;;;;;;;;9.00;7.00;;;;;;;;5105629;27;61886;-80
2022/09/02 02:35:02;;;;;;;;;18.25;12.50;;;;;;;;5103956;27;62052;-80
2022/09/02 02:37:27;;;;;;;;;16.50;12.75;;;;;;;;5103369;27;64972;-80
2022/09/02 02:39:52;;;;;;;;;13.75;13.25;;;;;;;;5105561;27;62066;-81
2022/09/02 02:42:19;;;;;;;;;19.25;13.75;;;;;;;;5105605;27;61889;-80
2022/09/02 02:44:44;;;;;;;;;18.25;15.75;;;;;;;;5104240;27;61805;-80
2022/09/02 02:47:09;;;;;;;;;19.50;14.25;;;;;;;;5103326;27;63619;-80
2022/09/02 02:49:38;;;;;;;;;18.00;16.25;;;;;;;;5104089;27;61840;-81
2022/09/02 02:52:04;;;;;;;;;15.25;13.75;;;;;;;;5103603;27;62033;-80
2022/09/02 02:54:29;;;;;;;;;17.75;13.25;;;;;;;;5104272;27;61733;-81
2022/09/02 02:56:54;;;;;;;;;15.75;15.25;;;;;;;;5103015;27;63515;-80
2022/09/02 02:59:20;;;;;;;;;13.50;13.50;;;;;;;;5103930;27;61767;-80
2022/09/02 03:01:45;;;;;;;;;15.50;11.50;;;;;;;;5103788;27;61794;-80
2022/09/02 03:04:10;;;;;;;;;14.25;14.25;;;;;;;;5104456;27;61976;-80
2022/09/02 03:06:35;;;;;;;;;16.00;13.25;;;;;;;;5103197;27;63910;-80
2022/09/02 03:09:01;;;;;;;;;11.75;10.25;;;;;;;;5104924;27;62005;-80
2022/09/02 03:11:27;;;;;;;;;12.25;12.00;;;;;;;;5105370;27;61943;-80
2022/09/02 03:13:52;;;;;;;;;14.50;11.75;;;;;;;;5105421;27;62123;-80
2022/09/02 03:16:18;;;;;;;;;10.00;10.00;;;;;;;;5103289;27;63841;-80
2022/09/02 03:18:45;;;;;;;;;12.25;9.00;;;;;;;;5103736;27;61895;-80
2022/09/02 03:21:11;;;;;;;;;11.50;11.25;;;;;;;;5105029;27;62272;-80
2022/09/02 03:23:36;;;;;;;;;12.50;11.50;;;;;;;;5103569;27;61943;-80
2022/09/02 03:26:01;;;;;;;;;11.00;8.75;;;;;;;;5102876;27;63475;-80
2022/09/02 03:28:27;;;;;;;;;11.00;9.00;;;;;;;;5103919;27;62047;-80
2022/09/02 03:30:52;;;;;;;;;8.50;8.50;;;;;;;;5105092;27;61916;-80
2022/09/02 03:33:17;;;;;;;;;8.75;8.50;;;;;;;;5103772;27;62073;-80
2022/09/02 03:35:43;;;;;;;;;11.75;10.00;;;;;;;;5102751;27;64898;-80
2022/09/02 03:38:09;;;;;;;;;9.50;7.50;;;;;;;;5104833;27;62156;-80
2022/09/02 03:40:35;;;;;;;;;13.75;12.50;;;;;;;;5103639;27;61807;-80
2022/09/02 03:43:00;;;;;;;;;10.25;9.25;;;;;;;;5104963;27;61667;-80
2022/09/02 03:45:25;;;;;;;;;9.50;8.25;;;;;;;;5104358;27;61853;-80
2022/09/02 03:47:52;;;;;;;;;12.75;9.50;;;;;;;;5104761;27;61889;-80
2022/09/02 03:50:26;;;;;;;;;9.25;8.25;;;;;;;;5104506;27;62117;-80
2022/09/02 03:52:52;;;;;;;;;9.50;7.75;;;;;;;;5104721;27;61975;-80
2022/09/02 03:55:17;;;;;;;;;12.25;9.75;;;;;;;;5102275;27;63458;-80
2022/09/02 03:57:43;;;;;;;;;9.50;8.50;;;;;;;;5104552;27;61668;-80
2022/09/02 04:00:10;;;;;;;;;6.00;5.25;;;;;;;;5103035;27;62328;-80
2022/09/02 04:02:35;;;;;;;;;7.50;6.50;;;;;;;;5104855;27;61942;-80
2022/09/02 04:05:00;;;;;;;;;12.75;9.50;;;;;;;;5103533;27;62105;-80
2022/09/02 04:07:26;;;;;;;;;9.00;9.00;;;;;;;;5104490;27;61805;-80
2022/09/02 04:09:51;;;;;;;;;9.50;9.00;;;;;;;;5104289;27;61882;-80
2022/09/02 04:12:17;;;;;;;;;10.00;8.75;;;;;;;;5102995;27;61771;-80
2022/09/02 04:14:42;;;;;;;;;9.50;7.75;;;;;;;;5103588;27;61814;-80
2022/09/02 04:17:07;;;;;;;;;7.50;7.00;;;;;;;;5103947;27;62079;-80
2022/09/02 04:19:32;;;;;;;;;9.00;9.00;;;;;;;;5102879;27;62132;-80
2022/09/02 04:21:58;;;;;;;;;9.75;8.00;;;;;;;;5103902;27;62400;-80
2022/09/02 04:24:23;;;;;;;;;7.75;7.00;;;;;;;;5101943;27;64784;-80
2022/09/02 04:26:48;;;;;;;;;8.25;7.75;;;;;;;;5102710;27;61836;-79
2022/09/02 04:29:14;;;;;;;;;7.75;7.50;;;;;;;;5102192;27;61949;-79
2022/09/02 04:31:39;;;;;;;;;9.75;7.25;;;;;;;;5103072;27;62070;-80
2022/09/02 04:34:05;;;;;;;;;9.00;7.50;;;;;;;;5103414;27;61848;-80
2022/09/02 04:36:31;;;;;;;;;8.00;8.00;;;;;;;;5101318;27;61827;-80
2022/09/02 04:38:57;;;;;;;;;7.75;7.75;;;;;;;;5102547;27;61740;-80
2022/09/02 04:41:23;;;;;;;;;10.50;8.75;;;;;;;;5103810;27;61791;-80
2022/09/02 04:43:53;;;;;;;;;8.75;8.25;;;;;;;;5101717;27;63961;-80
2022/09/02 04:46:19;;;;;;;;;11.00;8.25;;;;;;;;5103570;27;61794;-79
2022/09/02 04:48:46;;;;;;;;;10.00;8.25;;;;;;;;5103414;27;61745;-79
2022/09/02 04:51:12;;;;;;;;;9.50;8.25;;;;;;;;5103137;27;62107;-79
2022/09/02 04:53:38;;;;;;;;;17.25;11.00;;;;;;;;5102960;27;62073;-80
2022/09/02 04:56:04;;;;;;;;;14.25;10.25;;;;;;;;5101989;27;61922;-79
2022/09/02 04:58:30;;;;;;;;;9.75;9.00;;;;;;;;5101816;27;62523;-79
2022/09/02 05:00:55;;;;;;;;;14.50;10.25;;;;;;;;5103629;27;61809;-79
2022/09/02 05:03:20;;;;;;;;;7.25;7.25;;;;;;;;5102387;27;63067;-79
2022/09/02 05:05:47;;;;;;;;;11.25;10.00;;;;;;;;5101980;27;61753;-81
2022/09/02 05:08:12;;;;;;;;;10.00;10.00;;;;;;;;5102022;27;61746;-80
2022/09/02 05:10:41;;;;;;;;;11.00;11.00;;;;;;;;5103858;27;61807;-81
2022/09/02 05:13:11;;;;;;;;;8.00;8.00;;;;;;;;5102063;27;64529;-80
2022/09/02 05:15:39;;;;;;;;;11.75;9.75;;;;;;;;5103535;27;61869;-81
2022/09/02 05:18:04;;;;;;;;;10.00;8.25;;;;;;;;5102123;27;61900;-81
2022/09/02 05:20:31;;;;;;;;;9.50;9.00;;;;;;;;5101670;27;61918;-80
2022/09/02 05:22:56;;;;;;;;;9.75;8.75;;;;;;;;5101263;27;64031;-81
2022/09/02 05:25:21;;;;;;;;;8.25;6.25;;;;;;;;5101369;27;62174;-80
2022/09/02 05:27:47;;;;;;;;;10.00;9.75;;;;;;;;5103376;27;62043;-83
2022/09/02 05:30:12;;;;;;;;;12.25;10.25;;;;;;;;5103600;27;61796;-78
2022/09/02 05:32:37;;;;;;;;;14.00;9.25;;;;;;;;5102159;27;61770;-81
2022/09/02 05:35:03;;;;;;;;;11.75;9.50;;;;;;;;5100566;27;61866;-82
2022/09/02 05:37:28;;;;;;;;;10.00;9.50;;;;;;;;5102647;27;61868;-81
2022/09/02 05:39:53;;;;;;;;;11.50;10.50;;;;;;;;5101243;27;62161;-78
2022/09/02 05:42:19;;;;;;;;;14.75;12.50;;;;;;;;5102046;27;62955;-78
2022/09/02 05:44:45;;;;;;;;;11.25;11.00;;;;;;;;5102819;27;61820;-79
2022/09/02 05:47:10;;;;;;;;;10.00;10.00;;;;;;;;5102802;27;61970;-78
2022/09/02 05:49:36;;;;;;;;;10.50;10.50;;;;;;;;5102563;27;62275;-79
2022/09/02 05:52:02;;;;;;;;;12.00;9.50;;;;;;;;5099487;27;65048;-81
2022/09/02 05:54:32;;;;;;;;;12.50;11.25;;;;;;;;5100061;27;61896;-79
2022/09/02 05:56:58;;;;;;;;;13.75;10.25;;;;;;;;5102006;27;61955;-79
2022/09/02 05:59:25;;;;;;;;;15.50;14.50;;;;;;;;5100764;27;61805;-79
2022/09/02 06:01:51;;;;;;;;;20.50;15.25;;;;;;;;5101862;27;62703;-79
2022/09/02 06:04:16;;;;;;;;;16.50;14.50;;;;;;;;5100785;27;61747;-79
2022/09/02 06:06:42;;;;;;;;;17.50;14.50;;;;;;;;5101677;27;61741;-79
2022/09/02 06:09:09;;;;;;;;;16.75;12.00;;;;;;;;5097694;27;61785;-79
2022/09/02 06:11:38;;;;;;;;;13.00;13.00;;;;;;;;5100595;27;64744;-79
2022/09/02 06:14:06;;;;;;;;;12.50;12.50;;;;;;;;5101151;27;62090;-80
2022/09/02 06:16:32;;;;;;;;;9.25;9.25;;;;;;;;5101312;27;61894;-79
2022/09/02 06:18:57;;;;;;;;;10.50;10.50;;;;;;;;5102770;27;61893;-80
2022/09/02 06:21:22;;;;;;;;;9.50;8.50;;;;;;;;5100655;27;62176;-79
2022/09/02 06:23:47;;;;;;;;;11.25;8.75;;;;;;;;5100164;27;62101;-79
2022/09/02 06:26:14;;;;;;;;;10.50;10.25;;;;;;;;5101278;27;61831;-79
2022/09/02 06:28:39;;;;;;;;;12.75;10.75;;;;;;;;5100584;27;62054;-80
2022/09/02 06:31:09;;;;;;;;;9.75;8.25;;;;;;;;5095094;27;62050;-81
2022/09/02 06:33:35;;;;;;;;;9.00;7.75;;;;;;;;5081704;27;61920;-76
2022/09/02 06:36:00;;;;;;;;;6.75;6.25;;;;;;;;5080407;28;61948;-77
2022/09/02 06:38:25;;;;;;;;;12.25;10.25;;;;;;;;5080167;28;61862;-76
2022/09/02 06:40:52;;;;;;;;;12.50;9.25;;;;;;;;5081048;27;61779;-76
2022/09/02 06:43:18;;;;;;;;;8.00;8.00;;;;;;;;5081788;27;61916;-75
2022/09/02 06:45:43;;;;;;;;;13.25;9.00;;;;;;;;5080874;27;62117;-75
2022/09/02 06:48:10;;;;;;;;;9.00;8.50;;;;;;;;5080310;28;61909;-75
2022/09/02 06:50:39;;;;;;;;;14.75;8.50;;;;;;;;5080412;28;61767;-75
2022/09/02 06:53:06;;;;;;;;;11.25;8.75;;;;;;;;5079758;28;63017;-77
2022/09/02 06:55:33;;;;;;;;;11.00;8.50;;;;;;;;5090530;27;61722;-78
2022/09/02 06:57:58;;;;;;;;;9.50;9.50;;;;;;;;5101963;27;62184;-77
2022/09/02 07:00:24;;;;;;;;;10.00;8.50;;;;;;;;5103967;27;62062;-78
2022/09/02 07:05:08;;;;;;;;;9.00;8.00;;;;;;;;5105285;27;62045;-78
2022/09/02 07:05:34;;;;;;;;;7.25;7.25;;;;;;;;5105236;27;61848;-78
2022/09/02 07:07:59;;;;;;;;;8.75;7.50;;;;;;;;5103459;27;62130;-78
2022/09/02 07:10:25;;;;;;;;;12.00;10.00;;;;;;;;5102632;27;63509;-78
2022/09/02 07:12:50;;;;;;;;;7.50;7.50;;;;;;;;5105107;27;62730;-78
2022/09/02 07:15:15;;;;;;;;;13.00;9.00;;;;;;;;5105290;27;61963;-78
2022/09/02 07:17:41;;;;;;;;;12.00;8.25;;;;;;;;5105208;27;61837;-78
2022/09/02 07:20:06;;;;;;;;;10.25;8.50;;;;;;;;5102719;27;64776;-78
2022/09/02 07:22:31;;;;;;;;;11.50;9.00;;;;;;;;5104551;27;61699;-78
2022/09/02 07:24:57;;;;;;;;;6.50;6.50;;;;;;;;5104807;27;62278;-78
2022/09/02 07:27:22;;;;;;;;;7.50;7.00;;;;;;;;5103300;27;62124;-78
2022/09/02 07:29:47;;;;;;;;;9.00;8.50;;;;;;;;5102444;27;65088;-78
2022/09/02 07:32:14;;;;;;;;;8.75;6.25;;;;;;;;5102893;27;62331;-75
2022/09/02 07:34:39;;;;;;;;;10.00;8.00;;;;;;;;5103107;27;61982;-76
2022/09/02 07:37:05;;;;;;;;;7.75;7.75;;;;;;;;5102821;27;61842;-76
2022/09/02 07:39:30;;;;;;;;;14.50;9.75;;;;;;;;5103136;27;62031;-76
2022/09/02 07:41:56;;;;;;;;;8.25;7.25;;;;;;;;5103619;27;61836;-78
2022/09/02 07:44:22;;;;;;;;;9.00;8.25;;;;;;;;5105233;27;61814;-79
2022/09/02 07:46:47;;;;;;;;;10.00;9.75;;;;;;;;5104469;27;61773;-76
2022/09/02 07:49:14;;;;;;;;;11.75;9.75;;;;;;;;5102265;27;65069;-76
2022/09/02 07:51:42;;;;;;;;;9.50;7.75;;;;;;;;5104163;27;61876;-76
2022/09/02 07:54:08;;;;;;;;;14.00;10.50;;;;;;;;5104298;27;62663;-76
2022/09/02 07:56:33;;;;;;;;;11.25;11.25;;;;;;;;5104933;27;61993;-76
2022/09/02 07:58:59;;;;;;;;;13.25;10.25;;;;;;;;5103566;27;62832;-76
2022/09/02 08:01:24;;;;;;;;;10.75;9.50;;;;;;;;5103197;27;61718;-76
2022/09/02 08:03:49;;;;;;;;;9.00;8.50;;;;;;;;5103283;27;62130;-78
2022/09/02 08:06:15;;;;;;;;;8.50;8.00;;;;;;;;5102695;27;62181;-78
2022/09/02 08:08:41;;;;;;;;;10.50;7.50;;;;;;;;5100137;27;63190;-76
2022/09/02 08:11:08;;;;;;;;;8.75;8.75;;;;;;;;5104099;27;61816;-75
2022/09/02 08:13:37;;;;;;;;;8.25;8.25;;;;;;;;5104385;27;62078;-76
2022/09/02 08:16:03;;;;;;;;;13.75;8.50;;;;;;;;5103118;27;62184;-76
2022/09/02 08:18:29;;;;;;;;;9.00;7.00;;;;;;;;5103719;27;62099;-76
2022/09/02 08:20:54;;;;;;;;;14.25;10.00;;;;;;;;5103525;27;61710;-75
2022/09/02 08:23:20;;;;;;;;;8.00;8.00;;;;;;;;5102378;27;62059;-75
2022/09/02 08:25:45;;;;;;;;;8.75;7.75;;;;;;;;5104497;27;62074;-75
2022/09/02 08:28:11;;;;;;;;;7.75;7.75;;;;;;;;5102082;27;63864;-75
2022/09/02 08:30:36;;;;;;;;;9.75;8.75;;;;;;;;5099346;27;61882;-77
2022/09/02 08:33:01;;;;;;;;;11.25;8.00;;;;;;;;5083552;28;61802;-78
2022/09/02 08:35:27;;;;;;;;;13.75;10.25;;;;;;;;5098613;27;61816;-75
2022/09/02 08:37:52;;;;;;;;;9.00;8.75;;;;;;;;5081543;28;62913;-75
2022/09/02 08:40:22;;;;;;;;;10.75;8.00;;;;;;;;5098928;27;61925;-75
2022/09/02 08:42:51;;;;;;;;;12.50;10.00;;;;;;;;5083441;28;61951;-74
2022/09/02 08:45:23;;;;;;;;;12.25;9.25;;;;;;;;5099198;27;61734;-75
2022/09/02 08:47:52;;;;;;;;;10.00;7.25;;;;;;;;5082923;28;62022;-75
2022/09/02 08:50:18;;;;;;;;;9.50;8.00;;;;;;;;5081279;28;62352;-74
2022/09/02 08:52:52;;;;;;;;;12.25;11.00;;;;;;;;5098676;27;61891;-74
2022/09/02 08:55:20;;;;;;;;;9.75;8.50;;;;;;;;5082920;28;61732;-74
2022/09/02 08:57:45;;;;;;;;;11.50;10.50;;;;;;;;5082709;28;62821;-74
2022/09/02 09:00:12;;;;;;;;;11.50;10.75;;;;;;;;5083023;28;61813;-74
2022/09/02 09:03:09;;;;;;;;;10.00;10.00;;;;;;;;5099038;27;61894;-75
2022/09/02 09:05:58;;;;;;;;;12.75;9.75;;;;;;;;5047447;28;61936;-74
2022/09/02 09:08:47;;;;;;;;;12.00;12.00;;;;;;;;5077778;27;61854;-74
2022/09/02 09:11:12;;;;;;;;;12.00;10.00;;;;;;;;5096222;27;62118;-75
2022/09/02 09:13:56;;;;;;;;;20.25;10.50;;;;;;;;5103023;27;61906;-75
2022/09/02 09:16:27;;;;;;;;;13.00;12.00;;;;;;;;5102224;27;61909;-75
2022/09/02 09:18:52;;;;;;;;;12.50;10.75;;;;;;;;5100795;27;64796;-74
2022/09/02 09:21:17;;;;;;;;;13.00;12.00;;;;;;;;5101256;27;62212;-75
2022/09/02 09:23:43;;;;;;;;;11.50;8.50;;;;;;;;5102337;27;61935;-75
2022/09/02 09:26:10;;;;;;;;;17.50;12.75;;;;;;;;5103365;27;61793;-75
2022/09/02 09:28:40;;;;;;;;;15.75;11.25;;;;;;;;5100803;27;62820;-75
2022/09/02 09:31:08;;;;;;;;;12.75;11.00;;;;;;;;5098125;27;61964;-74
2022/09/02 09:33:33;;;;;;;;;13.25;11.00;;;;;;;;5082092;27;62255;-75
2022/09/02 09:36:01;;;;;;;;;13.75;12.25;;;;;;;;5082409;28;62640;-75
2022/09/02 09:38:28;;;;;;;;;10.00;10.00;;;;;;;;5081732;28;61971;-75
2022/09/02 09:41:09;;;;;;;;;12.00;10.75;;;;;;;;5082525;28;61904;-75
2022/09/02 09:43:34;;;;;;;;;14.00;12.25;;;;;;;;5082024;27;61923;-74
2022/09/02 09:46:18;;;;;;;;;17.00;12.25;;;;;;;;5081258;28;61799;-75
2022/09/02 09:48:48;;;;;;;;;14.25;10.25;;;;;;;;5081356;27;61976;-74
2022/09/02 09:51:14;;;;;;;;;11.75;10.00;;;;;;;;5080434;28;62015;-75
2022/09/02 09:53:40;;;;;;;;;11.50;9.75;;;;;;;;5082096;27;61862;-75
2022/09/02 09:56:20;;;;;;;;;11.00;10.25;;;;;;;;5081105;28;62066;-75
2022/09/02 09:58:46;;;;;;;;;12.75;10.50;;;;;;;;5081303;28;63270;-74
2022/09/02 10:01:28;;;;;;;;;8.50;8.50;;;;;;;;5081891;28;61719;-76
2022/09/02 10:03:59;;;;;;;;;11.00;10.00;;;;;;;;5081954;28;61813;-77
2022/09/02 10:06:25;;;;;;;;;16.00;13.50;;;;;;;;5082145;28;61894;-77
2022/09/02 10:08:51;;;;;;;;;14.50;11.00;;;;;;;;5089265;27;61883;-77
2022/09/02 10:11:21;;;;;;;;;15.25;12.75;;;;;;;;5102912;27;61688;-77
2022/09/02 10:13:47;;;;;;;;;13.75;13.00;;;;;;;;5101296;27;61793;-76
2022/09/02 10:16:21;;;;;;;;;13.25;10.50;;;;;;;;5102672;27;62384;-77
2022/09/02 10:18:52;;;;;;;;;9.50;9.50;;;;;;;;5102197;27;62801;-76
2022/09/02 10:21:31;;;;;;;;;15.25;12.50;;;;;;;;5102297;27;62174;-80
2022/09/02 10:24:08;;;;;;;;;15.00;13.50;;;;;;;;5101124;27;61728;-77
2022/09/02 10:26:39;;;;;;;;;15.33;13.67;;;;;;;;5102539;27;61938;-76
2022/09/02 10:29:28;;;;;;;;;13.00;12.00;;;;;;;;5100300;27;63096;-77
2022/09/02 10:31:59;;;;;;;;;15.50;11.50;;;;;;;;5081297;28;61947;-78
2022/09/02 10:34:30;;;;;;;;;12.25;10.75;;;;;;;;5083055;28;61715;-77
2022/09/02 10:36:58;;;;;;;;;10.00;9.00;;;;;;;;5087742;27;61951;-77
2022/09/02 10:39:29;;;;;;;;;12.50;12.50;;;;;;;;5105623;27;61674;-78
2022/09/02 10:41:57;;;;;;;;;12.25;10.50;;;;;;;;5104205;27;61775;-77
2022/09/02 10:44:41;;;;;;;;;16.00;9.75;;;;;;;;5106090;27;61758;-77
2022/09/02 10:47:11;;;;;;;;;15.25;14.00;;;;;;;;5105860;27;61889;-76
2022/09/02 10:50:03;;;;;;;;;12.33;10.33;;;;;;;;5103663;27;65015;-78
2022/09/02 10:52:55;;;;;;;;;15.50;13.00;;;;;;;;5099751;27;61933;-80
2022/09/02 10:55:23;;;;;;;;;12.25;10.00;;;;;;;;5102524;27;62197;-80
2022/09/02 10:58:12;;;;;;;;;11.00;10.00;;;;;;;;5104504;27;61738;-79
2022/09/02 11:00:40;;;;;;;;;15.50;11.50;;;;;;;;5104855;27;62912;-80
2022/09/02 11:03:13;;;;;;;;;12.50;11.50;;;;;;;;5104123;27;62250;-77
2022/09/02 11:06:05;;;;;;;;;13.00;9.75;;;;;;;;5105277;27;61781;-79
2022/09/02 11:08:43;;;;;;;;;11.00;11.00;;;;;;;;5102538;27;62177;-79
2022/09/02 11:11:10;;;;;;;;;13.00;10.50;;;;;;;;5104508;27;61943;-77
2022/09/02 11:13:48;;;;;;;;;16.00;12.00;;;;;;;;5103789;27;61756;-77
2022/09/02 11:16:27;;;;;;;;;12.25;10.50;;;;;;;;5105459;27;61786;-78
2022/09/02 11:19:15;;;;;;;;;15.00;11.25;;;;;;;;5105239;27;62574;-78
2022/09/02 11:21:46;;;;;;;;;15.75;14.50;;;;;;;;5104423;27;61923;-77
2022/09/02 11:24:14;;;;;;;;;15.00;12.75;;;;;;;;5102903;27;61737;-76
2022/09/02 11:26:52;;;;;;;;;14.50;11.75;;;;;;;;5104762;27;61992;-78
2022/09/02 11:29:20;;;;;;;;;12.75;12.00;;;;;;;;5103431;27;61815;-77
2022/09/02 11:31:58;;;;;;;;;12.67;11.33;;;;;;;;5104618;27;63117;-78
2022/09/02 11:34:23;;;;;;;;;12.25;11.75;;;;;;;;5105188;27;62031;-78
2022/09/02 11:36:49;;;;;;;;;14.00;14.00;;;;;;;;5103596;27;62036;-77
2022/09/02 11:39:28;;;;;;;;;10.50;10.50;;;;;;;;5103481;27;62229;-77
2022/09/02 11:42:12;;;;;;;;;17.00;13.33;;;;;;;;5103314;27;63713;-76
2022/09/02 11:44:39;;;;;;;;;14.00;13.50;;;;;;;;5104827;27;61738;-77
2022/09/02 11:47:21;;;;;;;;;15.25;14.00;;;;;;;;5104517;27;61788;-77
2022/09/02 11:50:07;;;;;;;;;14.50;13.25;;;;;;;;5103763;27;62015;-77
2022/09/02 11:52:51;;;;;;;;;18.75;14.25;;;;;;;;5105044;27;64800;-77
2022/09/02 11:55:23;;;;;;;;;15.33;14.33;;;;;;;;5103602;27;62092;-77
2022/09/02 11:57:53;;;;;;;;;18.00;17.00;;;;;;;;5098601;27;62048;-78
2022/09/02 12:00:31;;;;;;;;;13.33;13.33;;;;;;;;5101459;27;61857;-77
2022/09/02 12:03:12;;;;;;;;;18.25;15.00;;;;;;;;5101443;27;62603;-77
2022/09/02 12:05:41;;;;;;;;;20.25;16.50;;;;;;;;5100002;27;61784;-77
2022/09/02 12:08:35;;;;;;;;;19.50;14.25;;;;;;;;5101877;27;61820;-78
2022/09/02 12:11:05;;;;;;;;;17.00;15.00;;;;;;;;5101914;27;61731;-76
2022/09/02 12:13:40;;;;;;;;;16.00;13.00;;;;;;;;5101299;27;61922;-77
2022/09/02 12:16:11;;;;;;;;;17.00;12.00;;;;;;;;5100820;27;62074;-77
2022/09/02 12:18:38;;;;;;;;;17.67;14.33;;;;;;;;5097658;27;61769;-79
2022/09/02 12:21:23;;;;;;;;;20.00;15.67;;;;;;;;5100498;27;62052;-77
2022/09/02 12:23:52;;;;;;;;;17.67;16.00;;;;;;;;5100964;27;61903;-77
2022/09/02 12:26:21;;;;;;;;;19.25;15.75;;;;;;;;5099772;27;61986;-77
2022/09/02 12:28:47;;;;;;;;;22.33;20.33;;;;;;;;5101594;27;61974;-78
2022/09/02 12:31:31;;;;;;;;;14.33;12.67;;;;;;;;5105846;27;61939;-79
2022/09/02 12:34:01;;;;;;;;;19.67;15.33;;;;;;;;5099604;27;62079;-78
2022/09/02 12:36:36;;;;;;;;;17.33;14.00;;;;;;;;5102684;27;61768;-78
2022/09/02 12:39:20;;;;;;;;;14.00;11.67;;;;;;;;5103346;27;61757;-79
2022/09/02 12:41:48;;;;;;;;;14.67;11.67;;;;;;;;5099988;27;62078;-78
2022/09/02 12:44:26;;;;;;;;;17.00;13.00;;;;;;;;5102297;27;62861;-78
2022/09/02 12:47:00;;;;;;;;;15.00;12.33;;;;;;;;5102453;27;61748;-78
2022/09/02 12:49:40;;;;;;;;;13.33;12.33;;;;;;;;5103609;27;61872;-78
2022/09/02 12:52:10;;;;;;;;;17.00;12.33;;;;;;;;5103237;27;61919;-77
2022/09/02 12:54:38;;;;;;;;;15.67;13.67;;;;;;;;5101901;27;62632;-78
2022/09/02 12:57:09;;;;;;;;;13.33;13.33;;;;;;;;5101135;27;61949;-77
2022/09/02 12:59:37;;;;;;;;;18.00;14.00;;;;;;;;5098344;27;61741;-78
2022/09/02 13:02:20;;;;;;;;;13.67;12.00;;;;;;;;5101916;27;61984;-79
2022/09/02 13:05:15;;;;;;;;;22.00;15.67;;;;;;;;5103104;27;61986;-79
2022/09/02 13:07:59;;;;;;;;;19.00;14.33;;;;;;;;5102987;27;62058;-78
2022/09/02 13:10:50;;;;;;;;;13.67;13.67;;;;;;;;5099029;27;61901;-78
2022/09/02 13:13:34;;;;;;;;;16.33;14.00;;;;;;;;5103396;27;62014;-78
2022/09/02 13:16:18;;;;;;;;;13.00;12.67;;;;;;;;5103059;27;61994;-78
2022/09/02 13:18:46;;;;;;;;;14.67;11.67;;;;;;;;5101737;27;62162;-78
2022/09/02 13:21:30;;;;;;;;;11.67;10.00;;;;;;;;5103035;27;62032;-78
2022/09/02 13:24:07;;;;;;;;;15.00;15.00;;;;;;;;5101558;27;61979;-78
2022/09/02 13:26:32;;;;;;;;;13.00;13.00;;;;;;;;5100892;27;63917;-78
2022/09/02 13:29:10;;;;;;;;;14.00;13.00;;;;;;;;5099208;27;61824;-78
2022/09/02 13:31:36;;;;;;;;;14.00;13.00;;;;;;;;5102956;27;61755;-78
2022/09/02 13:34:03;;;;;;;;;10.33;10.33;;;;;;;;5101735;27;62042;-78
2022/09/02 13:36:31;;;;;;;;;16.00;13.67;;;;;;;;5101199;27;63643;-78
2022/09/02 13:39:08;;;;;;;;;15.33;11.67;;;;;;;;5103069;27;61913;-78
2022/09/02 13:41:34;;;;;;;;;11.67;11.33;;;;;;;;5103574;27;61799;-78
2022/09/02 13:44:09;;;;;;;;;10.33;10.33;;;;;;;;5103609;27;61714;-78
2022/09/02 13:46:51;;;;;;;;;13.00;12.00;;;;;;;;5102810;27;61924;-79
2022/09/02 13:49:18;;;;;;;;;9.00;9.00;;;;;;;;5099828;27;62102;-78
2022/09/02 13:51:44;;;;;;;;;13.33;11.33;;;;;;;;5101927;27;61771;-78
2022/09/02 13:54:10;;;;;;;;;13.00;9.33;;;;;;;;5100972;27;61895;-78
2022/09/02 13:56:35;;;;;;;;;16.00;10.67;;;;;;;;5100360;27;64137;-77
2022/09/02 13:59:01;;;;;;;;;12.33;11.33;;;;;;;;5099552;27;61749;-78
2022/09/02 14:01:31;;;;;;;;;13.00;13.00;;;;;;;;5100724;27;61868;-78
2022/09/02 14:03:58;;;;;;;;;12.33;10.00;;;;;;;;5097919;27;62286;-75
2022/09/02 14:06:27;;;;;;;;;16.33;9.00;;;;;;;;5099858;27;64494;-75
2022/09/02 14:08:55;;;;;;;;;11.67;10.67;;;;;;;;5100137;27;61779;-75
2022/09/02 14:11:20;;;;;;;;;12.00;12.00;;;;;;;;5105909;27;61929;-76
2022/09/02 14:13:47;;;;;;;;;10.00;9.33;;;;;;;;5102017;27;61869;-75
2022/09/02 14:16:26;;;;;;;;;12.00;11.67;;;;;;;;5103370;27;63457;-75
2022/09/02 14:19:09;;;;;;;;;9.67;8.00;;;;;;;;5107130;27;61995;-76
2022/09/02 14:21:35;;;;;;;;;8.00;8.00;;;;;;;;5104012;27;61875;-75
2022/09/02 14:24:01;;;;;;;;;12.00;10.67;;;;;;;;5105024;27;62026;-76
2022/09/02 14:26:36;;;;;;;;;15.00;11.67;;;;;;;;5102500;27;63802;-75
2022/09/02 14:29:05;;;;;;;;;10.00;10.00;;;;;;;;5100020;27;61834;-76
2022/09/02 14:31:32;;;;;;;;;12.33;9.33;;;;;;;;5102852;27;62116;-76
2022/09/02 14:33:58;;;;;;;;;11.33;10.33;;;;;;;;5102622;27;61978;-75
2022/09/02 14:36:23;;;;;;;;;12.00;8.00;;;;;;;;5102009;27;64663;-76
2022/09/02 14:38:50;;;;;;;;;6.00;6.00;;;;;;;;5100701;27;61902;-75